sensor_id;sensor_type;location;lat;lon;timestamp;P1;durP1;ratioP1;P2;durP2;ratioP2
43337;SDS011;28933;52.492;13.434;2024-03-25T00:00:21;3.72;;;2.83;;
43337;SDS011;28933;52.492;13.434;2024-03-25T00:03:10;4.03;;;2.75;;
43337;SDS011;28933;52.492;13.434;2024-03-25T00:05:56;3.85;;;2.55;;
43337;SDS011;28933;52.492;13.434;2024-03-25T00:08:42;3.05;;;2.33;;
43337;SDS011;28933;52.492;13.434;2024-03-25T00:11:28;2.92;;;2.10;;
43337;SDS011;28933;52.492;13.434;2024-03-25T00:14:14;2.92;;;1.98;;
43337;SDS011;28933;52.492;13.434;2024-03-25T00:17:00;2.92;;;2.17;;
43337;SDS011;28933;52.492;13.434;2024-03-25T00:19:46;3.38;;;2.28;;
43337;SDS011;28933;52.492;13.434;2024-03-25T00:22:36;3.35;;;2.15;;
43337;SDS011;28933;52.492;13.434;2024-03-25T00:25:22;3.78;;;2.58;;
43337;SDS011;28933;52.492;13.434;2024-03-25T00:28:08;3.42;;;2.53;;
43337;SDS011;28933;52.492;13.434;2024-03-25T00:30:54;3.33;;;2.60;;
43337;SDS011;28933;52.492;13.434;2024-03-25T00:33:39;5.47;;;2.70;;
43337;SDS011;28933;52.492;13.434;2024-03-25T00:36:25;3.40;;;2.50;;
43337;SDS011;28933;52.492;13.434;2024-03-25T00:39:11;5.40;;;2.97;;
43337;SDS011;28933;52.492;13.434;2024-03-25T00:41:58;4.68;;;2.95;;
43337;SDS011;28933;52.492;13.434;2024-03-25T00:44:44;6.00;;;3.67;;
43337;SDS011;28933;52.492;13.434;2024-03-25T00:47:30;5.55;;;3.78;;
43337;SDS011;28933;52.492;13.434;2024-03-25T00:50:16;5.75;;;3.30;;
43337;SDS011;28933;52.492;13.434;2024-03-25T00:53:02;4.47;;;3.35;;
43337;SDS011;28933;52.492;13.434;2024-03-25T00:55:49;4.72;;;3.25;;
43337;SDS011;28933;52.492;13.434;2024-03-25T00:58:36;5.07;;;3.15;;
43337;SDS011;28933;52.492;13.434;2024-03-25T01:01:22;4.75;;;3.22;;
43337;SDS011;28933;52.492;13.434;2024-03-25T01:04:08;5.65;;;3.30;;
43337;SDS011;28933;52.492;13.434;2024-03-25T01:06:54;5.07;;;3.80;;
43337;SDS011;28933;52.492;13.434;2024-03-25T01:09:40;5.20;;;3.33;;
43337;SDS011;28933;52.492;13.434;2024-03-25T01:12:26;4.70;;;3.20;;
43337;SDS011;28933;52.492;13.434;2024-03-25T01:15:12;5.43;;;3.80;;
43337;SDS011;28933;52.492;13.434;2024-03-25T01:17:58;6.70;;;4.30;;
43337;SDS011;28933;52.492;13.434;2024-03-25T01:20:44;5.93;;;3.88;;
43337;SDS011;28933;52.492;13.434;2024-03-25T01:23:31;5.43;;;4.07;;
43337;SDS011;28933;52.492;13.434;2024-03-25T01:26:17;8.55;;;4.40;;
43337;SDS011;28933;52.492;13.434;2024-03-25T01:29:03;5.13;;;3.88;;
43337;SDS011;28933;52.492;13.434;2024-03-25T01:31:49;6.10;;;4.10;;
43337;SDS011;28933;52.492;13.434;2024-03-25T01:34:35;6.57;;;4.55;;
43337;SDS011;28933;52.492;13.434;2024-03-25T01:37:21;7.15;;;5.20;;
43337;SDS011;28933;52.492;13.434;2024-03-25T01:40:07;6.00;;;4.10;;
43337;SDS011;28933;52.492;13.434;2024-03-25T01:42:58;5.50;;;4.20;;
43337;SDS011;28933;52.492;13.434;2024-03-25T01:45:45;6.65;;;4.43;;
43337;SDS011;28933;52.492;13.434;2024-03-25T01:48:31;7.05;;;4.43;;
43337;SDS011;28933;52.492;13.434;2024-03-25T01:51:17;6.88;;;4.70;;
43337;SDS011;28933;52.492;13.434;2024-03-25T01:54:06;4.35;;;3.55;;
43337;SDS011;28933;52.492;13.434;2024-03-25T01:56:53;4.78;;;3.63;;
43337;SDS011;28933;52.492;13.434;2024-03-25T01:59:40;4.53;;;3.08;;
43337;SDS011;28933;52.492;13.434;2024-03-25T02:02:27;9.55;;;2.47;;
43337;SDS011;28933;52.492;13.434;2024-03-25T02:05:14;2.88;;;1.90;;
43337;SDS011;28933;52.492;13.434;2024-03-25T02:08:01;4.22;;;2.20;;
43337;SDS011;28933;52.492;13.434;2024-03-25T02:10:49;2.60;;;1.83;;
43337;SDS011;28933;52.492;13.434;2024-03-25T02:13:36;2.78;;;1.80;;
43337;SDS011;28933;52.492;13.434;2024-03-25T02:16:23;1.73;;;1.42;;
43337;SDS011;28933;52.492;13.434;2024-03-25T02:19:09;2.45;;;1.60;;
43337;SDS011;28933;52.492;13.434;2024-03-25T02:21:58;2.03;;;1.35;;
43337;SDS011;28933;52.492;13.434;2024-03-25T02:24:45;3.22;;;1.70;;
43337;SDS011;28933;52.492;13.434;2024-03-25T02:27:32;2.22;;;1.30;;
43337;SDS011;28933;52.492;13.434;2024-03-25T02:30:18;2.60;;;1.40;;
43337;SDS011;28933;52.492;13.434;2024-03-25T02:33:04;2.35;;;1.52;;
43337;SDS011;28933;52.492;13.434;2024-03-25T02:35:50;3.08;;;2.17;;
43337;SDS011;28933;52.492;13.434;2024-03-25T02:38:36;3.45;;;2.15;;
43337;SDS011;28933;52.492;13.434;2024-03-25T02:41:22;5.05;;;2.58;;
43337;SDS011;28933;52.492;13.434;2024-03-25T02:44:09;5.35;;;2.78;;
43337;SDS011;28933;52.492;13.434;2024-03-25T02:46:55;3.65;;;2.47;;
43337;SDS011;28933;52.492;13.434;2024-03-25T02:49:42;3.13;;;2.08;;
43337;SDS011;28933;52.492;13.434;2024-03-25T02:52:28;5.00;;;2.53;;
43337;SDS011;28933;52.492;13.434;2024-03-25T02:55:14;4.80;;;2.63;;
43337;SDS011;28933;52.492;13.434;2024-03-25T02:58:00;4.63;;;2.30;;
43337;SDS011;28933;52.492;13.434;2024-03-25T03:00:46;4.40;;;2.30;;
43337;SDS011;28933;52.492;13.434;2024-03-25T03:03:32;3.83;;;2.33;;
43337;SDS011;28933;52.492;13.434;2024-03-25T03:06:18;4.85;;;2.22;;
43337;SDS011;28933;52.492;13.434;2024-03-25T03:09:04;3.78;;;2.25;;
43337;SDS011;28933;52.492;13.434;2024-03-25T03:11:50;4.10;;;1.88;;
43337;SDS011;28933;52.492;13.434;2024-03-25T03:14:36;4.20;;;2.30;;
43337;SDS011;28933;52.492;13.434;2024-03-25T03:17:22;6.55;;;2.20;;
43337;SDS011;28933;52.492;13.434;2024-03-25T03:20:08;4.18;;;1.85;;
43337;SDS011;28933;52.492;13.434;2024-03-25T03:22:56;4.95;;;2.90;;
43337;SDS011;28933;52.492;13.434;2024-03-25T03:25:43;5.28;;;2.40;;
43337;SDS011;28933;52.492;13.434;2024-03-25T03:28:30;5.28;;;2.60;;
43337;SDS011;28933;52.492;13.434;2024-03-25T03:31:15;6.47;;;2.63;;
43337;SDS011;28933;52.492;13.434;2024-03-25T03:34:02;4.05;;;2.40;;
43337;SDS011;28933;52.492;13.434;2024-03-25T03:36:48;6.32;;;2.75;;
43337;SDS011;28933;52.492;13.434;2024-03-25T03:39:34;4.88;;;2.50;;
43337;SDS011;28933;52.492;13.434;2024-03-25T03:42:20;3.88;;;2.55;;
43337;SDS011;28933;52.492;13.434;2024-03-25T03:45:06;4.40;;;2.60;;
43337;SDS011;28933;52.492;13.434;2024-03-25T03:47:53;4.45;;;2.47;;
43337;SDS011;28933;52.492;13.434;2024-03-25T03:50:39;3.50;;;2.08;;
43337;SDS011;28933;52.492;13.434;2024-03-25T03:53:27;4.82;;;2.60;;
43337;SDS011;28933;52.492;13.434;2024-03-25T03:56:13;6.00;;;2.78;;
43337;SDS011;28933;52.492;13.434;2024-03-25T03:58:59;4.13;;;2.45;;
43337;SDS011;28933;52.492;13.434;2024-03-25T04:01:45;3.80;;;2.88;;
43337;SDS011;28933;52.492;13.434;2024-03-25T04:04:31;3.72;;;2.90;;
43337;SDS011;28933;52.492;13.434;2024-03-25T04:07:16;5.50;;;2.42;;
43337;SDS011;28933;52.492;13.434;2024-03-25T04:10:03;3.70;;;2.45;;
43337;SDS011;28933;52.492;13.434;2024-03-25T04:12:49;4.20;;;2.60;;
43337;SDS011;28933;52.492;13.434;2024-03-25T04:15:35;4.38;;;2.40;;
43337;SDS011;28933;52.492;13.434;2024-03-25T04:18:22;3.60;;;2.00;;
43337;SDS011;28933;52.492;13.434;2024-03-25T04:21:11;3.35;;;2.28;;
43337;SDS011;28933;52.492;13.434;2024-03-25T04:23:57;4.88;;;2.10;;
43337;SDS011;28933;52.492;13.434;2024-03-25T04:26:44;4.75;;;2.58;;
43337;SDS011;28933;52.492;13.434;2024-03-25T04:29:30;4.40;;;2.53;;
43337;SDS011;28933;52.492;13.434;2024-03-25T04:32:16;3.92;;;2.25;;
43337;SDS011;28933;52.492;13.434;2024-03-25T04:35:02;4.68;;;2.58;;
43337;SDS011;28933;52.492;13.434;2024-03-25T04:37:48;3.20;;;1.98;;
43337;SDS011;28933;52.492;13.434;2024-03-25T04:40:35;3.85;;;1.98;;
43337;SDS011;28933;52.492;13.434;2024-03-25T04:43:21;3.17;;;2.03;;
43337;SDS011;28933;52.492;13.434;2024-03-25T04:46:07;2.85;;;2.03;;
43337;SDS011;28933;52.492;13.434;2024-03-25T04:48:53;4.65;;;2.30;;
43337;SDS011;28933;52.492;13.434;2024-03-25T04:51:39;5.20;;;2.97;;
43337;SDS011;28933;52.492;13.434;2024-03-25T04:54:26;5.32;;;2.60;;
43337;SDS011;28933;52.492;13.434;2024-03-25T04:57:12;6.72;;;3.45;;
43337;SDS011;28933;52.492;13.434;2024-03-25T04:59:58;4.07;;;2.88;;
43337;SDS011;28933;52.492;13.434;2024-03-25T05:02:44;4.97;;;3.03;;
43337;SDS011;28933;52.492;13.434;2024-03-25T05:05:30;4.00;;;2.75;;
43337;SDS011;28933;52.492;13.434;2024-03-25T05:08:16;4.82;;;3.40;;
43337;SDS011;28933;52.492;13.434;2024-03-25T05:11:03;5.22;;;3.30;;
43337;SDS011;28933;52.492;13.434;2024-03-25T05:13:49;7.10;;;3.50;;
43337;SDS011;28933;52.492;13.434;2024-03-25T05:16:35;5.60;;;3.97;;
43337;SDS011;28933;52.492;13.434;2024-03-25T05:19:24;4.78;;;3.58;;
43337;SDS011;28933;52.492;13.434;2024-03-25T05:22:10;5.88;;;3.47;;
43337;SDS011;28933;52.492;13.434;2024-03-25T05:24:56;5.15;;;3.20;;
43337;SDS011;28933;52.492;13.434;2024-03-25T05:27:43;7.97;;;3.35;;
43337;SDS011;28933;52.492;13.434;2024-03-25T05:30:28;7.20;;;3.95;;
43337;SDS011;28933;52.492;13.434;2024-03-25T05:33:14;6.78;;;3.55;;
43337;SDS011;28933;52.492;13.434;2024-03-25T05:36:01;4.47;;;3.40;;
43337;SDS011;28933;52.492;13.434;2024-03-25T05:38:47;6.25;;;3.53;;
43337;SDS011;28933;52.492;13.434;2024-03-25T05:41:33;6.78;;;3.85;;
43337;SDS011;28933;52.492;13.434;2024-03-25T05:44:19;6.97;;;3.35;;
43337;SDS011;28933;52.492;13.434;2024-03-25T05:47:05;4.60;;;2.60;;
43337;SDS011;28933;52.492;13.434;2024-03-25T05:49:51;6.40;;;3.22;;
43337;SDS011;28933;52.492;13.434;2024-03-25T05:52:38;3.83;;;2.63;;
43337;SDS011;28933;52.492;13.434;2024-03-25T05:55:24;4.38;;;2.72;;
43337;SDS011;28933;52.492;13.434;2024-03-25T05:58:09;7.65;;;3.90;;
43337;SDS011;28933;52.492;13.434;2024-03-25T06:00:55;4.57;;;3.08;;
43337;SDS011;28933;52.492;13.434;2024-03-25T06:03:41;6.20;;;3.08;;
43337;SDS011;28933;52.492;13.434;2024-03-25T06:06:27;6.40;;;3.47;;
43337;SDS011;28933;52.492;13.434;2024-03-25T06:09:14;6.07;;;3.85;;
43337;SDS011;28933;52.492;13.434;2024-03-25T06:12:00;4.97;;;3.30;;
43337;SDS011;28933;52.492;13.434;2024-03-25T06:14:46;7.10;;;3.33;;
43337;SDS011;28933;52.492;13.434;2024-03-25T06:17:33;5.85;;;3.70;;
43337;SDS011;28933;52.492;13.434;2024-03-25T06:20:19;6.53;;;2.95;;
43337;SDS011;28933;52.492;13.434;2024-03-25T06:23:05;6.65;;;3.80;;
43337;SDS011;28933;52.492;13.434;2024-03-25T06:25:52;7.85;;;3.45;;
43337;SDS011;28933;52.492;13.434;2024-03-25T06:28:38;8.68;;;3.42;;
43337;SDS011;28933;52.492;13.434;2024-03-25T06:31:25;5.57;;;3.20;;
43337;SDS011;28933;52.492;13.434;2024-03-25T06:34:29;6.55;;;3.47;;
43337;SDS011;28933;52.492;13.434;2024-03-25T06:37:15;7.63;;;3.30;;
43337;SDS011;28933;52.492;13.434;2024-03-25T06:40:01;6.53;;;3.53;;
43337;SDS011;28933;52.492;13.434;2024-03-25T06:42:47;5.82;;;3.10;;
43337;SDS011;28933;52.492;13.434;2024-03-25T06:45:33;5.15;;;2.55;;
43337;SDS011;28933;52.492;13.434;2024-03-25T06:48:19;6.25;;;3.60;;
43337;SDS011;28933;52.492;13.434;2024-03-25T06:51:05;5.13;;;2.80;;
43337;SDS011;28933;52.492;13.434;2024-03-25T06:53:51;6.50;;;3.08;;
43337;SDS011;28933;52.492;13.434;2024-03-25T06:56:37;4.78;;;2.63;;
43337;SDS011;28933;52.492;13.434;2024-03-25T06:59:24;8.35;;;2.78;;
43337;SDS011;28933;52.492;13.434;2024-03-25T07:02:10;5.82;;;3.03;;
43337;SDS011;28933;52.492;13.434;2024-03-25T07:04:56;6.55;;;2.95;;
43337;SDS011;28933;52.492;13.434;2024-03-25T07:07:42;6.28;;;3.75;;
43337;SDS011;28933;52.492;13.434;2024-03-25T07:10:28;4.82;;;2.92;;
43337;SDS011;28933;52.492;13.434;2024-03-25T07:13:14;5.00;;;2.80;;
43337;SDS011;28933;52.492;13.434;2024-03-25T07:16:00;5.63;;;2.78;;
43337;SDS011;28933;52.492;13.434;2024-03-25T07:18:46;5.88;;;3.05;;
43337;SDS011;28933;52.492;13.434;2024-03-25T07:21:31;5.40;;;3.33;;
43337;SDS011;28933;52.492;13.434;2024-03-25T07:24:17;5.65;;;2.67;;
43337;SDS011;28933;52.492;13.434;2024-03-25T07:27:03;3.63;;;2.47;;
43337;SDS011;28933;52.492;13.434;2024-03-25T07:29:49;5.15;;;3.08;;
43337;SDS011;28933;52.492;13.434;2024-03-25T07:32:36;8.50;;;3.80;;
43337;SDS011;28933;52.492;13.434;2024-03-25T07:35:22;6.65;;;3.03;;
43337;SDS011;28933;52.492;13.434;2024-03-25T07:38:08;6.13;;;3.10;;
43337;SDS011;28933;52.492;13.434;2024-03-25T07:40:54;8.60;;;2.80;;
43337;SDS011;28933;52.492;13.434;2024-03-25T07:43:40;4.78;;;3.00;;
43337;SDS011;28933;52.492;13.434;2024-03-25T07:46:26;5.63;;;3.20;;
43337;SDS011;28933;52.492;13.434;2024-03-25T07:49:12;4.78;;;2.35;;
43337;SDS011;28933;52.492;13.434;2024-03-25T07:52:00;6.90;;;3.10;;
43337;SDS011;28933;52.492;13.434;2024-03-25T07:54:46;4.65;;;2.83;;
43337;SDS011;28933;52.492;13.434;2024-03-25T07:57:32;6.57;;;3.13;;
43337;SDS011;28933;52.492;13.434;2024-03-25T08:00:18;7.13;;;2.50;;
43337;SDS011;28933;52.492;13.434;2024-03-25T08:03:04;3.60;;;2.45;;
43337;SDS011;28933;52.492;13.434;2024-03-25T08:05:50;3.63;;;2.33;;
43337;SDS011;28933;52.492;13.434;2024-03-25T08:08:36;6.07;;;2.28;;
43337;SDS011;28933;52.492;13.434;2024-03-25T08:11:22;5.88;;;2.70;;
43337;SDS011;28933;52.492;13.434;2024-03-25T08:14:09;5.15;;;2.83;;
43337;SDS011;28933;52.492;13.434;2024-03-25T08:16:55;10.02;;;3.30;;
43337;SDS011;28933;52.492;13.434;2024-03-25T08:19:41;4.82;;;3.03;;
43337;SDS011;28933;52.492;13.434;2024-03-25T08:22:27;4.63;;;2.60;;
43337;SDS011;28933;52.492;13.434;2024-03-25T08:25:13;4.95;;;2.90;;
43337;SDS011;28933;52.492;13.434;2024-03-25T08:27:59;7.75;;;4.15;;
43337;SDS011;28933;52.492;13.434;2024-03-25T08:30:45;4.82;;;3.47;;
43337;SDS011;28933;52.492;13.434;2024-03-25T08:33:31;6.30;;;3.85;;
43337;SDS011;28933;52.492;13.434;2024-03-25T08:36:17;7.85;;;4.30;;
43337;SDS011;28933;52.492;13.434;2024-03-25T08:39:06;8.63;;;4.07;;
43337;SDS011;28933;52.492;13.434;2024-03-25T08:41:52;7.55;;;4.13;;
43337;SDS011;28933;52.492;13.434;2024-03-25T08:44:38;7.50;;;3.80;;
43337;SDS011;28933;52.492;13.434;2024-03-25T08:47:24;5.80;;;3.40;;
43337;SDS011;28933;52.492;13.434;2024-03-25T08:50:10;5.88;;;4.07;;
43337;SDS011;28933;52.492;13.434;2024-03-25T08:52:56;6.07;;;3.30;;
43337;SDS011;28933;52.492;13.434;2024-03-25T08:55:45;5.53;;;3.22;;
43337;SDS011;28933;52.492;13.434;2024-03-25T08:58:31;7.50;;;4.75;;
43337;SDS011;28933;52.492;13.434;2024-03-25T09:01:17;8.48;;;3.83;;
43337;SDS011;28933;52.492;13.434;2024-03-25T09:04:03;6.47;;;3.58;;
43337;SDS011;28933;52.492;13.434;2024-03-25T09:06:49;7.25;;;3.80;;
43337;SDS011;28933;52.492;13.434;2024-03-25T09:09:35;5.13;;;3.33;;
43337;SDS011;28933;52.492;13.434;2024-03-25T09:12:39;7.25;;;3.17;;
43337;SDS011;28933;52.492;13.434;2024-03-25T09:15:25;5.53;;;3.20;;
43337;SDS011;28933;52.492;13.434;2024-03-25T09:18:11;5.35;;;2.80;;
43337;SDS011;28933;52.492;13.434;2024-03-25T09:20:57;4.95;;;3.35;;
43337;SDS011;28933;52.492;13.434;2024-03-25T09:23:43;6.43;;;3.58;;
43337;SDS011;28933;52.492;13.434;2024-03-25T09:26:29;7.32;;;3.72;;
43337;SDS011;28933;52.492;13.434;2024-03-25T09:29:15;5.47;;;3.35;;
43337;SDS011;28933;52.492;13.434;2024-03-25T09:32:02;6.55;;;3.50;;
43337;SDS011;28933;52.492;13.434;2024-03-25T09:34:48;5.18;;;3.17;;
43337;SDS011;28933;52.492;13.434;2024-03-25T09:37:35;6.20;;;3.38;;
43337;SDS011;28933;52.492;13.434;2024-03-25T09:40:22;5.85;;;2.97;;
43337;SDS011;28933;52.492;13.434;2024-03-25T09:43:32;5.88;;;3.20;;
43337;SDS011;28933;52.492;13.434;2024-03-25T09:46:23;5.13;;;2.90;;
43337;SDS011;28933;52.492;13.434;2024-03-25T09:49:10;5.05;;;3.42;;
43337;SDS011;28933;52.492;13.434;2024-03-25T09:51:57;4.88;;;3.35;;
43337;SDS011;28933;52.492;13.434;2024-03-25T09:54:43;11.15;;;4.05;;
43337;SDS011;28933;52.492;13.434;2024-03-25T09:57:28;5.35;;;3.33;;
43337;SDS011;28933;52.492;13.434;2024-03-25T10:00:15;6.47;;;3.30;;
43337;SDS011;28933;52.492;13.434;2024-03-25T10:03:01;6.32;;;3.42;;
43337;SDS011;28933;52.492;13.434;2024-03-25T10:05:47;5.05;;;2.97;;
43337;SDS011;28933;52.492;13.434;2024-03-25T10:08:33;5.05;;;3.03;;
43337;SDS011;28933;52.492;13.434;2024-03-25T10:11:19;5.63;;;2.92;;
43337;SDS011;28933;52.492;13.434;2024-03-25T10:14:05;4.03;;;2.85;;
43337;SDS011;28933;52.492;13.434;2024-03-25T10:16:51;4.80;;;2.95;;
43337;SDS011;28933;52.492;13.434;2024-03-25T10:19:37;4.88;;;2.95;;
43337;SDS011;28933;52.492;13.434;2024-03-25T10:22:23;14.25;;;3.40;;
43337;SDS011;28933;52.492;13.434;2024-03-25T10:25:19;5.60;;;3.00;;
43337;SDS011;28933;52.492;13.434;2024-03-25T10:28:11;4.32;;;2.53;;
43337;SDS011;28933;52.492;13.434;2024-03-25T10:31:02;5.00;;;2.80;;
43337;SDS011;28933;52.492;13.434;2024-03-25T10:33:49;3.90;;;2.20;;
43337;SDS011;28933;52.492;13.434;2024-03-25T10:36:35;6.38;;;2.95;;
43337;SDS011;28933;52.492;13.434;2024-03-25T10:39:22;4.43;;;2.42;;
43337;SDS011;28933;52.492;13.434;2024-03-25T10:42:12;4.13;;;1.95;;
43337;SDS011;28933;52.492;13.434;2024-03-25T10:44:59;4.60;;;2.05;;
43337;SDS011;28933;52.492;13.434;2024-03-25T10:47:46;3.53;;;2.05;;
43337;SDS011;28933;52.492;13.434;2024-03-25T10:50:33;4.45;;;2.22;;
43337;SDS011;28933;52.492;13.434;2024-03-25T10:53:20;3.10;;;1.60;;
43337;SDS011;28933;52.492;13.434;2024-03-25T10:56:08;4.63;;;1.80;;
43337;SDS011;28933;52.492;13.434;2024-03-25T10:58:57;4.63;;;1.77;;
43337;SDS011;28933;52.492;13.434;2024-03-25T11:01:44;5.05;;;2.22;;
43337;SDS011;28933;52.492;13.434;2024-03-25T11:04:31;3.28;;;2.00;;
43337;SDS011;28933;52.492;13.434;2024-03-25T11:07:17;4.38;;;2.00;;
43337;SDS011;28933;52.492;13.434;2024-03-25T11:10:12;5.75;;;2.10;;
43337;SDS011;28933;52.492;13.434;2024-03-25T11:12:59;3.75;;;2.17;;
43337;SDS011;28933;52.492;13.434;2024-03-25T11:15:46;2.83;;;2.03;;
43337;SDS011;28933;52.492;13.434;2024-03-25T11:18:34;3.15;;;2.00;;
43337;SDS011;28933;52.492;13.434;2024-03-25T11:21:26;3.42;;;2.08;;
43337;SDS011;28933;52.492;13.434;2024-03-25T11:24:12;3.78;;;1.70;;
43337;SDS011;28933;52.492;13.434;2024-03-25T11:27:00;4.38;;;2.03;;
43337;SDS011;28933;52.492;13.434;2024-03-25T11:29:48;5.47;;;3.10;;
43337;SDS011;28933;52.492;13.434;2024-03-25T11:32:44;3.65;;;2.15;;
43337;SDS011;28933;52.492;13.434;2024-03-25T11:35:38;4.63;;;2.40;;
43337;SDS011;28933;52.492;13.434;2024-03-25T11:38:24;3.65;;;2.08;;
43337;SDS011;28933;52.492;13.434;2024-03-25T11:41:11;2.33;;;1.92;;
43337;SDS011;28933;52.492;13.434;2024-03-25T11:43:57;4.90;;;2.13;;
43337;SDS011;28933;52.492;13.434;2024-03-25T11:46:44;3.20;;;1.63;;
43337;SDS011;28933;52.492;13.434;2024-03-25T11:49:30;4.00;;;1.70;;
43337;SDS011;28933;52.492;13.434;2024-03-25T11:52:16;4.40;;;2.75;;
43337;SDS011;28933;52.492;13.434;2024-03-25T11:55:03;4.65;;;2.50;;
43337;SDS011;28933;52.492;13.434;2024-03-25T11:57:55;3.88;;;2.17;;
43337;SDS011;28933;52.492;13.434;2024-03-25T12:00:45;2.90;;;1.55;;
43337;SDS011;28933;52.492;13.434;2024-03-25T12:03:33;4.10;;;1.50;;
43337;SDS011;28933;52.492;13.434;2024-03-25T12:06:19;2.45;;;1.50;;
43337;SDS011;28933;52.492;13.434;2024-03-25T12:09:05;4.28;;;1.52;;
43337;SDS011;28933;52.492;13.434;2024-03-25T12:12:09;3.83;;;1.48;;
43337;SDS011;28933;52.492;13.434;2024-03-25T12:14:55;2.15;;;1.52;;
43337;SDS011;28933;52.492;13.434;2024-03-25T12:17:42;3.08;;;1.42;;
43337;SDS011;28933;52.492;13.434;2024-03-25T12:20:28;2.42;;;1.27;;
43337;SDS011;28933;52.492;13.434;2024-03-25T12:23:15;3.00;;;1.65;;
43337;SDS011;28933;52.492;13.434;2024-03-25T12:26:02;3.25;;;1.70;;
43337;SDS011;28933;52.492;13.434;2024-03-25T12:28:49;2.88;;;1.40;;
43337;SDS011;28933;52.492;13.434;2024-03-25T12:31:35;2.90;;;1.63;;
43337;SDS011;28933;52.492;13.434;2024-03-25T12:34:22;2.50;;;1.35;;
43337;SDS011;28933;52.492;13.434;2024-03-25T12:37:08;3.25;;;1.40;;
43337;SDS011;28933;52.492;13.434;2024-03-25T12:39:54;3.65;;;1.70;;
43337;SDS011;28933;52.492;13.434;2024-03-25T12:42:43;2.33;;;1.40;;
43337;SDS011;28933;52.492;13.434;2024-03-25T12:45:29;2.50;;;1.48;;
43337;SDS011;28933;52.492;13.434;2024-03-25T12:48:15;3.42;;;1.70;;
43337;SDS011;28933;52.492;13.434;2024-03-25T12:51:01;3.35;;;1.73;;
43337;SDS011;28933;52.492;13.434;2024-03-25T12:53:47;3.17;;;1.60;;
43337;SDS011;28933;52.492;13.434;2024-03-25T12:56:37;3.08;;;1.45;;
43337;SDS011;28933;52.492;13.434;2024-03-25T12:59:23;3.45;;;1.65;;
43337;SDS011;28933;52.492;13.434;2024-03-25T13:02:10;1.67;;;1.35;;
43337;SDS011;28933;52.492;13.434;2024-03-25T13:04:57;2.42;;;1.30;;
43337;SDS011;28933;52.492;13.434;2024-03-25T13:07:43;2.92;;;1.30;;
43337;SDS011;28933;52.492;13.434;2024-03-25T13:10:30;4.30;;;1.50;;
43337;SDS011;28933;52.492;13.434;2024-03-25T13:13:16;2.50;;;1.40;;
43337;SDS011;28933;52.492;13.434;2024-03-25T13:16:03;2.30;;;1.20;;
43337;SDS011;28933;52.492;13.434;2024-03-25T13:18:49;3.10;;;1.58;;
43337;SDS011;28933;52.492;13.434;2024-03-25T13:21:35;5.57;;;2.00;;
43337;SDS011;28933;52.492;13.434;2024-03-25T13:24:21;1.98;;;1.30;;
43337;SDS011;28933;52.492;13.434;2024-03-25T13:27:08;3.13;;;1.73;;
43337;SDS011;28933;52.492;13.434;2024-03-25T13:29:54;3.60;;;2.00;;
43337;SDS011;28933;52.492;13.434;2024-03-25T13:32:40;4.00;;;1.77;;
43337;SDS011;28933;52.492;13.434;2024-03-25T13:35:26;5.75;;;2.25;;
43337;SDS011;28933;52.492;13.434;2024-03-25T13:38:12;3.95;;;1.80;;
43337;SDS011;28933;52.492;13.434;2024-03-25T13:41:01;3.78;;;1.85;;
43337;SDS011;28933;52.492;13.434;2024-03-25T13:43:48;4.15;;;1.80;;
43337;SDS011;28933;52.492;13.434;2024-03-25T13:46:33;2.05;;;1.38;;
43337;SDS011;28933;52.492;13.434;2024-03-25T13:49:19;3.28;;;1.33;;
43337;SDS011;28933;52.492;13.434;2024-03-25T13:52:07;3.25;;;1.67;;
43337;SDS011;28933;52.492;13.434;2024-03-25T13:54:53;4.25;;;2.63;;
43337;SDS011;28933;52.492;13.434;2024-03-25T13:57:39;2.45;;;1.45;;
43337;SDS011;28933;52.492;13.434;2024-03-25T14:00:25;4.45;;;1.60;;
43337;SDS011;28933;52.492;13.434;2024-03-25T14:03:14;2.78;;;1.42;;
43337;SDS011;28933;52.492;13.434;2024-03-25T14:06:01;1.77;;;1.40;;
43337;SDS011;28933;52.492;13.434;2024-03-25T14:08:47;1.92;;;1.33;;
43337;SDS011;28933;52.492;13.434;2024-03-25T14:11:33;2.53;;;1.33;;
43337;SDS011;28933;52.492;13.434;2024-03-25T14:14:19;3.00;;;1.63;;
43337;SDS011;28933;52.492;13.434;2024-03-25T14:17:05;1.73;;;1.42;;
43337;SDS011;28933;52.492;13.434;2024-03-25T14:19:53;2.38;;;1.38;;
43337;SDS011;28933;52.492;13.434;2024-03-25T14:22:41;3.88;;;1.50;;
43337;SDS011;28933;52.492;13.434;2024-03-25T14:25:27;2.97;;;1.38;;
43337;SDS011;28933;52.492;13.434;2024-03-25T14:28:13;2.28;;;1.10;;
43337;SDS011;28933;52.492;13.434;2024-03-25T14:30:59;1.73;;;1.40;;
43337;SDS011;28933;52.492;13.434;2024-03-25T14:33:45;1.58;;;1.25;;
43337;SDS011;28933;52.492;13.434;2024-03-25T14:36:31;2.50;;;1.50;;
43337;SDS011;28933;52.492;13.434;2024-03-25T14:39:17;2.92;;;1.73;;
43337;SDS011;28933;52.492;13.434;2024-03-25T14:42:03;2.22;;;1.30;;
43337;SDS011;28933;52.492;13.434;2024-03-25T14:44:49;1.90;;;1.25;;
43337;SDS011;28933;52.492;13.434;2024-03-25T14:47:35;1.98;;;1.38;;
43337;SDS011;28933;52.492;13.434;2024-03-25T14:50:21;2.35;;;1.70;;
43337;SDS011;28933;52.492;13.434;2024-03-25T14:53:07;2.58;;;1.63;;
43337;SDS011;28933;52.492;13.434;2024-03-25T14:55:53;3.20;;;1.40;;
43337;SDS011;28933;52.492;13.434;2024-03-25T14:58:40;2.67;;;1.38;;
43337;SDS011;28933;52.492;13.434;2024-03-25T15:01:26;3.95;;;2.17;;
43337;SDS011;28933;52.492;13.434;2024-03-25T15:04:13;6.50;;;1.48;;
43337;SDS011;28933;52.492;13.434;2024-03-25T15:06:59;3.25;;;1.25;;
43337;SDS011;28933;52.492;13.434;2024-03-25T15:09:45;1.30;;;1.17;;
43337;SDS011;28933;52.492;13.434;2024-03-25T15:12:31;4.45;;;2.05;;
43337;SDS011;28933;52.492;13.434;2024-03-25T15:15:17;1.63;;;1.17;;
43337;SDS011;28933;52.492;13.434;2024-03-25T15:18:03;2.55;;;1.15;;
43337;SDS011;28933;52.492;13.434;2024-03-25T15:21:02;1.95;;;1.20;;
43337;SDS011;28933;52.492;13.434;2024-03-25T15:23:49;6.53;;;1.38;;
43337;SDS011;28933;52.492;13.434;2024-03-25T15:26:35;2.70;;;1.50;;
43337;SDS011;28933;52.492;13.434;2024-03-25T15:29:20;1.55;;;1.10;;
43337;SDS011;28933;52.492;13.434;2024-03-25T15:32:06;1.55;;;1.02;;
43337;SDS011;28933;52.492;13.434;2024-03-25T15:34:52;2.28;;;1.10;;
43337;SDS011;28933;52.492;13.434;2024-03-25T15:37:38;4.63;;;1.85;;
43337;SDS011;28933;52.492;13.434;2024-03-25T15:40:24;3.35;;;1.45;;
43337;SDS011;28933;52.492;13.434;2024-03-25T15:43:10;2.90;;;1.73;;
43337;SDS011;28933;52.492;13.434;2024-03-25T15:45:56;2.35;;;1.40;;
43337;SDS011;28933;52.492;13.434;2024-03-25T15:48:44;2.17;;;1.13;;
43337;SDS011;28933;52.492;13.434;2024-03-25T15:51:30;1.65;;;1.02;;
43337;SDS011;28933;52.492;13.434;2024-03-25T15:54:16;2.38;;;1.38;;
43337;SDS011;28933;52.492;13.434;2024-03-25T15:57:02;2.13;;;1.20;;
43337;SDS011;28933;52.492;13.434;2024-03-25T15:59:49;2.88;;;1.55;;
43337;SDS011;28933;52.492;13.434;2024-03-25T16:02:35;3.97;;;2.28;;
43337;SDS011;28933;52.492;13.434;2024-03-25T16:05:22;2.75;;;1.50;;
43337;SDS011;28933;52.492;13.434;2024-03-25T16:08:08;2.33;;;1.40;;
43337;SDS011;28933;52.492;13.434;2024-03-25T16:10:53;2.85;;;1.70;;
43337;SDS011;28933;52.492;13.434;2024-03-25T16:13:40;2.58;;;1.30;;
43337;SDS011;28933;52.492;13.434;2024-03-25T16:16:26;1.88;;;1.10;;
43337;SDS011;28933;52.492;13.434;2024-03-25T16:19:12;2.55;;;1.70;;
43337;SDS011;28933;52.492;13.434;2024-03-25T16:21:59;2.80;;;1.40;;
43337;SDS011;28933;52.492;13.434;2024-03-25T16:24:45;3.42;;;1.60;;
43337;SDS011;28933;52.492;13.434;2024-03-25T16:27:32;3.05;;;1.70;;